sensor_id;sensor_type;location;lat;lon;timestamp;temperature;humidity
56044;DHT22;41912;51.022;3.664;2022-12-18T00:01:18;-1.90;99.90
56044;DHT22;41912;51.022;3.664;2022-12-18T00:03:45;-1.90;99.90
56044;DHT22;41912;51.022;3.664;2022-12-18T00:06:11;-1.90;99.90
56044;DHT22;41912;51.022;3.664;2022-12-18T00:08:37;-1.90;99.90
56044;DHT22;41912;51.022;3.664;2022-12-18T00:11:08;-1.90;99.90
56044;DHT22;41912;51.022;3.664;2022-12-18T00:13:34;-2.00;99.90
56044;DHT22;41912;51.022;3.664;2022-12-18T00:16:10;-2.00;99.90
56044;DHT22;41912;51.022;3.664;2022-12-18T00:18:36;-2.00;99.90
56044;DHT22;41912;51.022;3.664;2022-12-18T00:21:05;-2.00;99.90
56044;DHT22;41912;51.022;3.664;2022-12-18T00:23:34;-2.10;99.90
56044;DHT22;41912;51.022;3.664;2022-12-18T00:26:09;-2.10;99.90
56044;DHT22;41912;51.022;3.664;2022-12-18T00:28:35;-2.10;99.90
56044;DHT22;41912;51.022;3.664;2022-12-18T00:31:01;-2.10;99.90
56044;DHT22;41912;51.022;3.664;2022-12-18T00:33:27;-2.10;99.90
56044;DHT22;41912;51.022;3.664;2022-12-18T00:35:53;-2.10;99.90
56044;DHT22;41912;51.022;3.664;2022-12-18T00:38:19;-2.10;99.90
56044;DHT22;41912;51.022;3.664;2022-12-18T00:40:44;-2.10;99.90
56044;DHT22;41912;51.022;3.664;2022-12-18T00:43:10;-2.10;99.90
56044;DHT22;41912;51.022;3.664;2022-12-18T00:45:35;-2.10;99.90
56044;DHT22;41912;51.022;3.664;2022-12-18T00:48:01;-2.20;99.90
56044;DHT22;41912;51.022;3.664;2022-12-18T00:50:27;-2.20;99.90
56044;DHT22;41912;51.022;3.664;2022-12-18T00:52:53;-2.20;99.90
56044;DHT22;41912;51.022;3.664;2022-12-18T00:55:18;-2.20;99.90
56044;DHT22;41912;51.022;3.664;2022-12-18T00:57:44;-2.30;99.90
56044;DHT22;41912;51.022;3.664;2022-12-18T01:00:13;-2.30;99.90
56044;DHT22;41912;51.022;3.664;2022-12-18T01:02:39;-2.30;99.90
56044;DHT22;41912;51.022;3.664;2022-12-18T01:05:05;-2.30;99.90
56044;DHT22;41912;51.022;3.664;2022-12-18T01:07:30;-2.30;99.90
56044;DHT22;41912;51.022;3.664;2022-12-18T01:09:56;-2.30;99.90
56044;DHT22;41912;51.022;3.664;2022-12-18T01:12:21;-2.30;99.90
56044;DHT22;41912;51.022;3.664;2022-12-18T01:14:47;-2.30;99.90
56044;DHT22;41912;51.022;3.664;2022-12-18T01:17:13;-2.30;99.90
56044;DHT22;41912;51.022;3.664;2022-12-18T01:19:38;-2.30;99.90
56044;DHT22;41912;51.022;3.664;2022-12-18T01:22:04;-2.30;99.90
56044;DHT22;41912;51.022;3.664;2022-12-18T01:24:30;-2.30;99.90
56044;DHT22;41912;51.022;3.664;2022-12-18T01:26:55;-2.30;99.90
56044;DHT22;41912;51.022;3.664;2022-12-18T01:29:22;-2.30;99.90
56044;DHT22;41912;51.022;3.664;2022-12-18T01:31:48;-2.40;99.90
56044;DHT22;41912;51.022;3.664;2022-12-18T01:34:14;-2.40;99.90
56044;DHT22;41912;51.022;3.664;2022-12-18T01:36:40;-2.40;99.90
56044;DHT22;41912;51.022;3.664;2022-12-18T01:39:14;-2.50;99.90
56044;DHT22;41912;51.022;3.664;2022-12-18T01:41:40;-2.50;99.90
56044;DHT22;41912;51.022;3.664;2022-12-18T01:45:03;-2.60;99.90
56044;DHT22;41912;51.022;3.664;2022-12-18T01:47:39;-2.60;99.90
56044;DHT22;41912;51.022;3.664;2022-12-18T01:53:05;-2.60;99.90
56044;DHT22;41912;51.022;3.664;2022-12-18T01:55:39;-2.60;99.90
56044;DHT22;41912;51.022;3.664;2022-12-18T01:58:07;-2.60;99.90
56044;DHT22;41912;51.022;3.664;2022-12-18T02:00:32;-2.60;99.90
56044;DHT22;41912;51.022;3.664;2022-12-18T02:02:59;-2.70;99.90
56044;DHT22;41912;51.022;3.664;2022-12-18T02:05:47;-2.70;99.90
56044;DHT22;41912;51.022;3.664;2022-12-18T02:08:30;-2.70;99.90
56044;DHT22;41912;51.022;3.664;2022-12-18T02:13:53;-2.80;99.90
56044;DHT22;41912;51.022;3.664;2022-12-18T02:27:44;-3.00;99.90
56044;DHT22;41912;51.022;3.664;2022-12-18T02:30:12;-3.00;99.90
56044;DHT22;41912;51.022;3.664;2022-12-18T02:32:42;-3.10;99.90
56044;DHT22;41912;51.022;3.664;2022-12-18T02:35:15;-3.00;99.90
56044;DHT22;41912;51.022;3.664;2022-12-18T02:37:43;-3.10;99.90
56044;DHT22;41912;51.022;3.664;2022-12-18T02:40:11;-3.10;99.90
56044;DHT22;41912;51.022;3.664;2022-12-18T02:42:38;-3.00;99.90
56044;DHT22;41912;51.022;3.664;2022-12-18T02:45:04;-3.00;99.90
56044;DHT22;41912;51.022;3.664;2022-12-18T02:47:33;-3.10;99.90
56044;DHT22;41912;51.022;3.664;2022-12-18T02:57:55;-3.10;99.90
56044;DHT22;41912;51.022;3.664;2022-12-18T03:00:28;-3.10;99.90
56044;DHT22;41912;51.022;3.664;2022-12-18T03:03:46;-3.10;99.90
56044;DHT22;41912;51.022;3.664;2022-12-18T03:06:47;-3.20;99.90
56044;DHT22;41912;51.022;3.664;2022-12-18T03:09:09;-3.20;99.90
56044;DHT22;41912;51.022;3.664;2022-12-18T03:11:39;-3.20;99.90
56044;DHT22;41912;51.022;3.664;2022-12-18T03:14:25;-3.20;99.90
56044;DHT22;41912;51.022;3.664;2022-12-18T03:16:55;-3.30;99.90
56044;DHT22;41912;51.022;3.664;2022-12-18T03:19:27;-3.30;99.90
56044;DHT22;41912;51.022;3.664;2022-12-18T03:21:56;-3.30;99.90
56044;DHT22;41912;51.022;3.664;2022-12-18T03:24:23;-3.40;99.90
56044;DHT22;41912;51.022;3.664;2022-12-18T03:26:52;-3.40;99.90
56044;DHT22;41912;51.022;3.664;2022-12-18T03:29:24;-3.40;99.90
56044;DHT22;41912;51.022;3.664;2022-12-18T03:31:55;-3.40;99.90
56044;DHT22;41912;51.022;3.664;2022-12-18T03:34:25;-3.50;99.90
56044;DHT22;41912;51.022;3.664;2022-12-18T03:36:51;-3.50;99.90
56044;DHT22;41912;51.022;3.664;2022-12-18T03:39:17;-3.40;99.90
56044;DHT22;41912;51.022;3.664;2022-12-18T03:44:14;-3.50;99.90
56044;DHT22;41912;51.022;3.664;2022-12-18T03:52:27;-3.50;99.90
56044;DHT22;41912;51.022;3.664;2022-12-18T03:54:55;-3.60;99.90
56044;DHT22;41912;51.022;3.664;2022-12-18T03:57:26;-3.60;99.90
56044;DHT22;41912;51.022;3.664;2022-12-18T04:00:00;-3.60;99.90
56044;DHT22;41912;51.022;3.664;2022-12-18T04:02:28;-3.50;99.90
56044;DHT22;41912;51.022;3.664;2022-12-18T04:04:58;-3.60;99.90
56044;DHT22;41912;51.022;3.664;2022-12-18T04:07:25;-3.70;99.90
56044;DHT22;41912;51.022;3.664;2022-12-18T04:09:53;-3.60;99.90
56044;DHT22;41912;51.022;3.664;2022-12-18T04:12:20;-3.70;99.90
56044;DHT22;41912;51.022;3.664;2022-12-18T04:14:45;-3.70;99.90
56044;DHT22;41912;51.022;3.664;2022-12-18T04:17:11;-3.70;99.90
56044;DHT22;41912;51.022;3.664;2022-12-18T04:19:37;-3.70;99.90
56044;DHT22;41912;51.022;3.664;2022-12-18T04:22:02;-3.70;99.90
56044;DHT22;41912;51.022;3.664;2022-12-18T04:24:28;-3.70;99.90
56044;DHT22;41912;51.022;3.664;2022-12-18T04:26:54;-3.70;99.90
56044;DHT22;41912;51.022;3.664;2022-12-18T04:29:19;-3.60;99.90
56044;DHT22;41912;51.022;3.664;2022-12-18T04:31:45;-3.60;99.90
56044;DHT22;41912;51.022;3.664;2022-12-18T04:34:11;-3.60;99.90
56044;DHT22;41912;51.022;3.664;2022-12-18T04:36:36;-3.60;99.90
56044;DHT22;41912;51.022;3.664;2022-12-18T04:39:02;-3.60;99.90
56044;DHT22;41912;51.022;3.664;2022-12-18T04:41:28;-3.60;99.90
56044;DHT22;41912;51.022;3.664;2022-12-18T04:43:53;-3.50;99.90
56044;DHT22;41912;51.022;3.664;2022-12-18T04:46:19;-3.50;99.90
56044;DHT22;41912;51.022;3.664;2022-12-18T04:48:46;-3.50;99.90
56044;DHT22;41912;51.022;3.664;2022-12-18T04:51:12;-3.50;99.90
56044;DHT22;41912;51.022;3.664;2022-12-18T04:53:38;-3.50;99.90
56044;DHT22;41912;51.022;3.664;2022-12-18T04:56:09;-3.50;99.90
56044;DHT22;41912;51.022;3.664;2022-12-18T04:58:36;-3.40;99.90
56044;DHT22;41912;51.022;3.664;2022-12-18T05:01:02;-3.40;99.90
56044;DHT22;41912;51.022;3.664;2022-12-18T05:03:28;-3.50;99.90
56044;DHT22;41912;51.022;3.664;2022-12-18T05:05:53;-3.50;99.90
56044;DHT22;41912;51.022;3.664;2022-12-18T05:08:19;-3.50;99.90
56044;DHT22;41912;51.022;3.664;2022-12-18T05:10:44;-3.50;99.90
56044;DHT22;41912;51.022;3.664;2022-12-18T05:13:10;-3.50;99.90
56044;DHT22;41912;51.022;3.664;2022-12-18T05:15:36;-3.50;99.90
56044;DHT22;41912;51.022;3.664;2022-12-18T05:18:03;-3.60;99.90
56044;DHT22;41912;51.022;3.664;2022-12-18T05:20:29;-3.60;99.90
56044;DHT22;41912;51.022;3.664;2022-12-18T05:22:55;-3.60;99.90
56044;DHT22;41912;51.022;3.664;2022-12-18T05:25:22;-3.60;99.90
56044;DHT22;41912;51.022;3.664;2022-12-18T05:27:48;-3.60;99.90
56044;DHT22;41912;51.022;3.664;2022-12-18T05:30:14;-3.60;99.90
56044;DHT22;41912;51.022;3.664;2022-12-18T05:32:40;-3.60;99.90
56044;DHT22;41912;51.022;3.664;2022-12-18T05:35:08;-3.60;99.90
56044;DHT22;41912;51.022;3.664;2022-12-18T05:37:34;-3.60;99.90
56044;DHT22;41912;51.022;3.664;2022-12-18T05:39:59;-3.60;99.90
56044;DHT22;41912;51.022;3.664;2022-12-18T05:42:25;-3.40;99.90
56044;DHT22;41912;51.022;3.664;2022-12-18T05:44:51;-3.60;99.90
56044;DHT22;41912;51.022;3.664;2022-12-18T05:47:16;-3.60;99.90
56044;DHT22;41912;51.022;3.664;2022-12-18T05:49:42;-3.60;99.90
56044;DHT22;41912;51.022;3.664;2022-12-18T05:52:08;-3.60;99.90
56044;DHT22;41912;51.022;3.664;2022-12-18T05:54:34;-3.60;99.90
56044;DHT22;41912;51.022;3.664;2022-12-18T05:57:00;-3.60;99.90
56044;DHT22;41912;51.022;3.664;2022-12-18T05:59:25;-3.60;99.90
56044;DHT22;41912;51.022;3.664;2022-12-18T06:01:51;-3.50;99.90
56044;DHT22;41912;51.022;3.664;2022-12-18T06:04:16;-3.60;99.90
56044;DHT22;41912;51.022;3.664;2022-12-18T06:06:42;-3.50;99.90
56044;DHT22;41912;51.022;3.664;2022-12-18T06:09:08;-3.50;99.90
56044;DHT22;41912;51.022;3.664;2022-12-18T06:11:36;-3.50;99.90
56044;DHT22;41912;51.022;3.664;2022-12-18T06:14:03;-3.50;99.90
56044;DHT22;41912;51.022;3.664;2022-12-18T06:16:29;-3.50;99.90
56044;DHT22;41912;51.022;3.664;2022-12-18T06:19:00;-3.50;99.90
56044;DHT22;41912;51.022;3.664;2022-12-18T06:21:27;-3.50;99.90
56044;DHT22;41912;51.022;3.664;2022-12-18T06:23:53;-3.50;99.90
56044;DHT22;41912;51.022;3.664;2022-12-18T06:26:19;-3.50;99.90
56044;DHT22;41912;51.022;3.664;2022-12-18T06:28:45;-3.50;99.90
56044;DHT22;41912;51.022;3.664;2022-12-18T06:31:11;-3.50;99.90
56044;DHT22;41912;51.022;3.664;2022-12-18T06:33:37;-3.50;99.90
56044;DHT22;41912;51.022;3.664;2022-12-18T06:36:08;-3.50;99.90
56044;DHT22;41912;51.022;3.664;2022-12-18T06:38:35;-3.50;99.90
56044;DHT22;41912;51.022;3.664;2022-12-18T06:41:09;-3.50;99.90
56044;DHT22;41912;51.022;3.664;2022-12-18T06:43:35;-3.50;99.90
56044;DHT22;41912;51.022;3.664;2022-12-18T06:46:03;-3.50;99.90
56044;DHT22;41912;51.022;3.664;2022-12-18T06:48:29;-3.50;99.90
56044;DHT22;41912;51.022;3.664;2022-12-18T06:50:55;-3.50;99.90
56044;DHT22;41912;51.022;3.664;2022-12-18T06:53:21;-3.40;99.90
56044;DHT22;41912;51.022;3.664;2022-12-18T06:55:46;-3.40;99.90
56044;DHT22;41912;51.022;3.664;2022-12-18T06:58:12;-3.40;99.90
56044;DHT22;41912;51.022;3.664;2022-12-18T07:00:37;-3.40;99.90
56044;DHT22;41912;51.022;3.664;2022-12-18T07:03:03;-3.40;99.90
56044;DHT22;41912;51.022;3.664;2022-12-18T07:05:29;-3.50;99.90
56044;DHT22;41912;51.022;3.664;2022-12-18T07:07:55;-3.40;99.90
56044;DHT22;41912;51.022;3.664;2022-12-18T07:10:21;-3.50;99.90
56044;DHT22;41912;51.022;3.664;2022-12-18T07:12:46;-3.50;99.90
56044;DHT22;41912;51.022;3.664;2022-12-18T07:15:12;-3.50;99.90
56044;DHT22;41912;51.022;3.664;2022-12-18T07:17:38;-3.50;99.90
56044;DHT22;41912;51.022;3.664;2022-12-18T07:20:03;-3.50;99.90
56044;DHT22;41912;51.022;3.664;2022-12-18T07:22:30;-3.50;99.90
56044;DHT22;41912;51.022;3.664;2022-12-18T07:24:55;-3.50;99.90
56044;DHT22;41912;51.022;3.664;2022-12-18T07:27:22;-3.50;99.90
56044;DHT22;41912;51.022;3.664;2022-12-18T07:29:48;-3.50;99.90
56044;DHT22;41912;51.022;3.664;2022-12-18T07:32:14;-3.50;99.90
56044;DHT22;41912;51.022;3.664;2022-12-18T07:34:39;-3.50;99.90
56044;DHT22;41912;51.022;3.664;2022-12-18T07:37:05;-3.50;99.90
56044;DHT22;41912;51.022;3.664;2022-12-18T07:39:31;-3.50;99.90
56044;DHT22;41912;51.022;3.664;2022-12-18T07:41:56;-3.50;99.90
56044;DHT22;41912;51.022;3.664;2022-12-18T07:44:40;-3.50;99.90
56044;DHT22;41912;51.022;3.664;2022-12-18T07:47:06;-3.50;99.90
56044;DHT22;41912;51.022;3.664;2022-12-18T07:49:32;-3.50;99.90
56044;DHT22;41912;51.022;3.664;2022-12-18T07:51:58;-3.50;99.90
56044;DHT22;41912;51.022;3.664;2022-12-18T07:54:24;-3.50;99.90
56044;DHT22;41912;51.022;3.664;2022-12-18T07:56:51;-3.50;99.90
56044;DHT22;41912;51.022;3.664;2022-12-18T07:59:17;-3.40;99.90
56044;DHT22;41912;51.022;3.664;2022-12-18T08:01:43;-3.40;99.90
56044;DHT22;41912;51.022;3.664;2022-12-18T08:04:09;-3.40;99.90
56044;DHT22;41912;51.022;3.664;2022-12-18T08:06:35;-3.60;99.90
56044;DHT22;41912;51.022;3.664;2022-12-18T08:09:00;-3.40;99.90
56044;DHT22;41912;51.022;3.664;2022-12-18T08:11:27;-3.40;99.90
56044;DHT22;41912;51.022;3.664;2022-12-18T08:13:53;-3.30;99.90
56044;DHT22;41912;51.022;3.664;2022-12-18T08:16:20;-3.30;99.90
56044;DHT22;41912;51.022;3.664;2022-12-18T08:18:46;-3.30;99.90
56044;DHT22;41912;51.022;3.664;2022-12-18T08:21:23;-3.30;99.90
56044;DHT22;41912;51.022;3.664;2022-12-18T08:23:51;-3.20;99.90
56044;DHT22;41912;51.022;3.664;2022-12-18T08:26:17;-3.20;99.90
56044;DHT22;41912;51.022;3.664;2022-12-18T08:28:43;-3.20;99.90
56044;DHT22;41912;51.022;3.664;2022-12-18T08:31:09;-3.20;99.90
56044;DHT22;41912;51.022;3.664;2022-12-18T08:33:35;-3.20;99.90
56044;DHT22;41912;51.022;3.664;2022-12-18T08:36:03;-3.10;99.90
56044;DHT22;41912;51.022;3.664;2022-12-18T08:38:28;-3.10;99.90
56044;DHT22;41912;51.022;3.664;2022-12-18T08:41:05;-3.10;99.90
56044;DHT22;41912;51.022;3.664;2022-12-18T08:43:31;-3.10;99.90
56044;DHT22;41912;51.022;3.664;2022-12-18T08:46:16;-3.00;99.90
56044;DHT22;41912;51.022;3.664;2022-12-18T08:48:42;-3.00;99.90
56044;DHT22;41912;51.022;3.664;2022-12-18T08:51:07;-3.00;99.90
56044;DHT22;41912;51.022;3.664;2022-12-18T08:53:38;-2.90;99.90
56044;DHT22;41912;51.022;3.664;2022-12-18T08:56:04;-2.90;99.90
56044;DHT22;41912;51.022;3.664;2022-12-18T08:58:30;-2.90;99.90
56044;DHT22;41912;51.022;3.664;2022-12-18T09:01:04;-2.90;99.90
56044;DHT22;41912;51.022;3.664;2022-12-18T09:03:30;-2.80;99.90
56044;DHT22;41912;51.022;3.664;2022-12-18T09:05:56;-2.80;99.90
56044;DHT22;41912;51.022;3.664;2022-12-18T09:08:22;-2.80;99.90
56044;DHT22;41912;51.022;3.664;2022-12-18T09:10:49;-2.80;99.90
56044;DHT22;41912;51.022;3.664;2022-12-18T09:13:16;-2.70;99.90
56044;DHT22;41912;51.022;3.664;2022-12-18T09:15:47;-2.70;99.90
56044;DHT22;41912;51.022;3.664;2022-12-18T09:18:14;-2.70;99.90
56044;DHT22;41912;51.022;3.664;2022-12-18T09:20:40;-2.60;99.90
56044;DHT22;41912;51.022;3.664;2022-12-18T09:23:06;-2.60;99.90
56044;DHT22;41912;51.022;3.664;2022-12-18T09:25:33;-2.60;99.90
56044;DHT22;41912;51.022;3.664;2022-12-18T09:28:02;-2.60;99.90
56044;DHT22;41912;51.022;3.664;2022-12-18T09:30:27;-2.50;99.90
56044;DHT22;41912;51.022;3.664;2022-12-18T09:32:53;-2.40;99.90
56044;DHT22;41912;51.022;3.664;2022-12-18T09:35:19;-2.40;99.90
56044;DHT22;41912;51.022;3.664;2022-12-18T09:37:44;-2.40;99.90
56044;DHT22;41912;51.022;3.664;2022-12-18T09:40:15;-2.40;99.90
56044;DHT22;41912;51.022;3.664;2022-12-18T09:42:46;-2.30;99.90
56044;DHT22;41912;51.022;3.664;2022-12-18T09:45:15;-2.30;99.90
56044;DHT22;41912;51.022;3.664;2022-12-18T09:47:43;-2.20;99.90
56044;DHT22;41912;51.022;3.664;2022-12-18T09:50:31;-2.20;99.90
56044;DHT22;41912;51.022;3.664;2022-12-18T09:53:02;-2.20;99.90
56044;DHT22;41912;51.022;3.664;2022-12-18T09:55:41;-2.20;99.90
56044;DHT22;41912;51.022;3.664;2022-12-18T09:58:12;-2.20;99.90
56044;DHT22;41912;51.022;3.664;2022-12-18T10:00:40;-2.20;99.90
56044;DHT22;41912;51.022;3.664;2022-12-18T10:03:14;-2.10;99.90
56044;DHT22;41912;51.022;3.664;2022-12-18T10:10:53;-2.00;99.90
56044;DHT22;41912;51.022;3.664;2022-12-18T10:13:42;-2.00;99.90
56044;DHT22;41912;51.022;3.664;2022-12-18T10:19:04;-1.90;99.90
56044;DHT22;41912;51.022;3.664;2022-12-18T10:27:15;-1.80;99.90
56044;DHT22;41912;51.022;3.664;2022-12-18T10:29:48;-1.80;99.90
56044;DHT22;41912;51.022;3.664;2022-12-18T10:32:30;-1.80;99.90
56044;DHT22;41912;51.022;3.664;2022-12-18T10:34:59;-1.70;99.90
56044;DHT22;41912;51.022;3.664;2022-12-18T10:37:27;-1.70;99.90
56044;DHT22;41912;51.022;3.664;2022-12-18T10:40:08;-1.70;99.90
56044;DHT22;41912;51.022;3.664;2022-12-18T10:42:35;-1.60;99.90
56044;DHT22;41912;51.022;3.664;2022-12-18T10:45:11;-1.60;99.90
56044;DHT22;41912;51.022;3.664;2022-12-18T10:47:43;-1.60;99.90
56044;DHT22;41912;51.022;3.664;2022-12-18T10:50:23;-1.60;99.90
56044;DHT22;41912;51.022;3.664;2022-12-18T10:53:03;-1.50;99.90
56044;DHT22;41912;51.022;3.664;2022-12-18T10:55:34;-1.50;99.90
56044;DHT22;41912;51.022;3.664;2022-12-18T10:58:21;-1.50;99.90
56044;DHT22;41912;51.022;3.664;2022-12-18T11:03:36;-1.50;99.90
56044;DHT22;41912;51.022;3.664;2022-12-18T11:06:05;-1.50;99.90
56044;DHT22;41912;51.022;3.664;2022-12-18T11:08:31;-1.40;99.90
56044;DHT22;41912;51.022;3.664;2022-12-18T11:10:56;-1.40;99.90
56044;DHT22;41912;51.022;3.664;2022-12-18T11:13:25;-1.30;99.90
56044;DHT22;41912;51.022;3.664;2022-12-18T11:15:51;-1.30;99.90
56044;DHT22;41912;51.022;3.664;2022-12-18T11:21:09;-1.20;99.90
56044;DHT22;41912;51.022;3.664;2022-12-18T11:23:51;-1.10;99.90
56044;DHT22;41912;51.022;3.664;2022-12-18T11:26:18;-1.10;99.90
56044;DHT22;41912;51.022;3.664;2022-12-18T11:28:50;-1.10;99.90
56044;DHT22;41912;51.022;3.664;2022-12-18T11:31:25;-1.10;99.90
56044;DHT22;41912;51.022;3.664;2022-12-18T11:36:31;-1.00;99.90
56044;DHT22;41912;51.022;3.664;2022-12-18T11:39:03;-1.00;99.90
56044;DHT22;41912;51.022;3.664;2022-12-18T11:41:37;-1.00;99.90
56044;DHT22;41912;51.022;3.664;2022-12-18T11:44:45;-0.90;99.90
56044;DHT22;41912;51.022;3.664;2022-12-18T11:47:26;-0.90;99.90
56044;DHT22;41912;51.022;3.664;2022-12-18T11:49:55;-0.90;99.90
56044;DHT22;41912;51.022;3.664;2022-12-18T11:52:31;-0.90;99.90
56044;DHT22;41912;51.022;3.664;2022-12-18T11:55:10;-0.90;99.90
56044;DHT22;41912;51.022;3.664;2022-12-18T11:57:51;-0.80;99.90
56044;DHT22;41912;51.022;3.664;2022-12-18T12:00:21;-0.80;99.90
56044;DHT22;41912;51.022;3.664;2022-12-18T12:03:22;-0.70;99.90
56044;DHT22;41912;51.022;3.664;2022-12-18T12:06:27;-0.70;99.90
56044;DHT22;41912;51.022;3.664;2022-12-18T12:17:26;-0.60;99.90
56044;DHT22;41912;51.022;3.664;2022-12-18T12:25:36;-0.40;99.90
56044;DHT22;41912;51.022;3.664;2022-12-18T12:33:46;-0.30;99.90
56044;DHT22;41912;51.022;3.664;2022-12-18T12:38:51;-0.30;99.90
56044;DHT22;41912;51.022;3.664;2022-12-18T12:41:23;-0.20;99.90
56044;DHT22;41912;51.022;3.664;2022-12-18T12:44:14;-0.20;99.90
56044;DHT22;41912;51.022;3.664;2022-12-18T12:46:42;-0.10;99.90
56044;DHT22;41912;51.022;3.664;2022-12-18T12:49:18;-0.10;99.90
56044;DHT22;41912;51.022;3.664;2022-12-18T12:51:54;-0.10;99.90
56044;DHT22;41912;51.022;3.664;2022-12-18T12:54:24;-0.10;99.90
56044;DHT22;41912;51.022;3.664;2022-12-18T12:59:32;0.00;99.90
56044;DHT22;41912;51.022;3.664;2022-12-18T13:02:21;0.00;99.90
56044;DHT22;41912;51.022;3.664;2022-12-18T13:13:02;0.10;99.90
56044;DHT22;41912;51.022;3.664;2022-12-18T13:25:44;0.20;99.90
56044;DHT22;41912;51.022;3.664;2022-12-18T13:28:15;0.30;99.90
56044;DHT22;41912;51.022;3.664;2022-12-18T13:30:42;0.30;99.90
56044;DHT22;41912;51.022;3.664;2022-12-18T13:40:55;0.30;99.90
56044;DHT22;41912;51.022;3.664;2022-12-18T13:43:23;0.40;99.90
56044;DHT22;41912;51.022;3.664;2022-12-18T13:48:38;0.40;99.90
56044;DHT22;41912;51.022;3.664;2022-12-18T13:51:09;0.40;99.90
56044;DHT22;41912;51.022;3.664;2022-12-18T13:53:44;0.40;99.90
56044;DHT22;41912;51.022;3.664;2022-12-18T13:56:20;0.40;99.90
56044;DHT22;41912;51.022;3.664;2022-12-18T13:59:08;0.40;99.90
56044;DHT22;41912;51.022;3.664;2022-12-18T14:01:35;0.50;99.90
56044;DHT22;41912;51.022;3.664;2022-12-18T14:04:16;0.50;99.90
56044;DHT22;41912;51.022;3.664;2022-12-18T14:06:46;0.50;99.90
56044;DHT22;41912;51.022;3.664;2022-12-18T14:09:16;0.50;99.90
56044;DHT22;41912;51.022;3.664;2022-12-18T14:11:50;0.50;99.90
56044;DHT22;41912;51.022;3.664;2022-12-18T14:14:17;0.50;99.90
56044;DHT22;41912;51.022;3.664;2022-12-18T14:16:44;0.50;99.90
56044;DHT22;41912;51.022;3.664;2022-12-18T14:19:16;0.50;99.90
56044;DHT22;41912;51.022;3.664;2022-12-18T14:21:47;0.60;99.90
56044;DHT22;41912;51.022;3.664;2022-12-18T14:24:17;0.60;99.90
56044;DHT22;41912;51.022;3.664;2022-12-18T14:26:44;0.60;99.90
56044;DHT22;41912;51.022;3.664;2022-12-18T14:29:28;0.60;99.90
56044;DHT22;41912;51.022;3.664;2022-12-18T14:32:18;0.70;99.90
56044;DHT22;41912;51.022;3.664;2022-12-18T14:34:52;0.70;99.90
56044;DHT22;41912;51.022;3.664;2022-12-18T14:37:24;0.70;99.90
56044;DHT22;41912;51.022;3.664;2022-12-18T14:40:02;0.70;99.90
56044;DHT22;41912;51.022;3.664;2022-12-18T14:42:29;0.70;99.90
56044;DHT22;41912;51.022;3.664;2022-12-18T14:47:58;0.70;99.90
56044;DHT22;41912;51.022;3.664;2022-12-18T14:50:24;0.70;99.90
56044;DHT22;41912;51.022;3.664;2022-12-18T14:52:50;0.70;99.90
56044;DHT22;41912;51.022;3.664;2022-12-18T14:55:20;0.70;99.90
56044;DHT22;41912;51.022;3.664;2022-12-18T14:57:50;0.70;99.90
56044;DHT22;41912;51.022;3.664;2022-12-18T15:00:18;0.70;99.90
56044;DHT22;41912;51.022;3.664;2022-12-18T15:02:52;0.70;99.90
56044;DHT22;41912;51.022;3.664;2022-12-18T15:05:19;0.80;99.90
56044;DHT22;41912;51.022;3.664;2022-12-18T15:07:47;0.70;99.90
56044;DHT22;41912;51.022;3.664;2022-12-18T15:18:19;0.80;99.90
56044;DHT22;41912;51.022;3.664;2022-12-18T15:20:49;0.80;99.90
56044;DHT22;41912;51.022;3.664;2022-12-18T15:23:51;0.80;99.90
56044;DHT22;41912;51.022;3.664;2022-12-18T15:26:20;0.80;99.90
56044;DHT22;41912;51.022;3.664;2022-12-18T15:28:53;0.80;99.90
56044;DHT22;41912;51.022;3.664;2022-12-18T15:31:24;0.80;99.90
56044;DHT22;41912;51.022;3.664;2022-12-18T15:36:23;0.90;99.90
56044;DHT22;41912;51.022;3.664;2022-12-18T15:38:49;0.90;99.90
56044;DHT22;41912;51.022;3.664;2022-12-18T15:41:18;0.90;99.90
56044;DHT22;41912;51.022;3.664;2022-12-18T15:43:44;0.90;99.90
56044;DHT22;41912;51.022;3.664;2022-12-18T15:46:19;0.90;99.90
56044;DHT22;41912;51.022;3.664;2022-12-18T15:48:47;0.90;99.90
56044;DHT22;41912;51.022;3.664;2022-12-18T15:51:19;1.00;99.90
56044;DHT22;41912;51.022;3.664;2022-12-18T15:53:47;1.00;99.90
56044;DHT22;41912;51.022;3.664;2022-12-18T15:56:14;1.00;99.90
56044;DHT22;41912;51.022;3.664;2022-12-18T15:58:58;1.00;99.90
56044;DHT22;41912;51.022;3.664;2022-12-18T16:01:27;1.00;99.90
56044;DHT22;41912;51.022;3.664;2022-12-18T16:03:53;1.00;99.90
56044;DHT22;41912;51.022;3.664;2022-12-18T16:06:20;1.00;99.90
56044;DHT22;41912;51.022;3.664;2022-12-18T16:08:45;1.10;99.90
56044;DHT22;41912;51.022;3.664;2022-12-18T16:11:32;1.10;99.90
56044;DHT22;41912;51.022;3.664;2022-12-18T16:14:23;1.10;99.90
56044;DHT22;41912;51.022;3.664;2022-12-18T16:16:53;1.10;99.90
56044;DHT22;41912;51.022;3.664;2022-12-18T16:19:20;1.10;99.90
56044;DHT22;41912;51.022;3.664;2022-12-18T16:21:47;1.10;99.90
56044;DHT22;41912;51.022;3.664;2022-12-18T16:24:18;1.10;99.90
56044;DHT22;41912;51.022;3.664;2022-12-18T16:26:44;1.10;99.90
56044;DHT22;41912;51.022;3.664;2022-12-18T16:29:10;1.10;99.90
56044;DHT22;41912;51.022;3.664;2022-12-18T16:31:37;1.20;99.90
56044;DHT22;41912;51.022;3.664;2022-12-18T16:34:14;1.20;99.90
56044;DHT22;41912;51.022;3.664;2022-12-18T16:36:43;1.20;99.90
56044;DHT22;41912;51.022;3.664;2022-12-18T16:39:08;1.20;99.90
56044;DHT22;41912;51.022;3.664;2022-12-18T16:41:34;1.20;99.90
56044;DHT22;41912;51.022;3.664;2022-12-18T16:44:01;1.30;99.90
56044;DHT22;41912;51.022;3.664;2022-12-18T16:46:27;1.30;99.90
56044;DHT22;41912;51.022;3.664;2022-12-18T16:48:52;1.30;99.90
56044;DHT22;41912;51.022;3.664;2022-12-18T16:51:18;1.30;99.90
56044;DHT22;41912;51.022;3.664;2022-12-18T16:53:44;1.30;99.90
56044;DHT22;41912;51.022;3.664;2022-12-18T16:56:09;1.30;99.90
56044;DHT22;41912;51.022;3.664;2022-12-18T16:58:35;1.30;99.90
56044;DHT22;41912;51.022;3.664;2022-12-18T17:01:01;1.30;99.90
56044;DHT22;41912;51.022;3.664;2022-12-18T17:03:26;1.30;99.90
56044;DHT22;41912;51.022;3.664;2022-12-18T17:05:52;1.30;99.90
56044;DHT22;41912;51.022;3.664;2022-12-18T17:08:18;1.40;99.90
56044;DHT22;41912;51.022;3.664;2022-12-18T17:10:43;1.40;99.90
56044;DHT22;41912;51.022;3.664;2022-12-18T17:13:09;1.40;99.90
56044;DHT22;41912;51.022;3.664;2022-12-18T17:15:35;1.40;99.90
56044;DHT22;41912;51.022;3.664;2022-12-18T17:18:01;1.40;99.90
56044;DHT22;41912;51.022;3.664;2022-12-18T17:20:27;1.40;99.90
56044;DHT22;41912;51.022;3.664;2022-12-18T17:22:52;1.40;99.90
56044;DHT22;41912;51.022;3.664;2022-12-18T17:25:18;1.40;99.90
56044;DHT22;41912;51.022;3.664;2022-12-18T17:27:44;1.50;99.90
56044;DHT22;41912;51.022;3.664;2022-12-18T17:30:10;1.50;99.90
56044;DHT22;41912;51.022;3.664;2022-12-18T17:32:35;1.50;99.90
56044;DHT22;41912;51.022;3.664;2022-12-18T17:35:01;1.50;99.90
56044;DHT22;41912;51.022;3.664;2022-12-18T17:37:27;1.50;99.90
56044;DHT22;41912;51.022;3.664;2022-12-18T17:39:53;1.50;99.90
56044;DHT22;41912;51.022;3.664;2022-12-18T17:42:18;1.50;99.90
56044;DHT22;41912;51.022;3.664;2022-12-18T17:44:44;1.50;99.90
56044;DHT22;41912;51.022;3.664;2022-12-18T17:47:11;1.60;99.90
56044;DHT22;41912;51.022;3.664;2022-12-18T17:49:37;1.60;99.90
56044;DHT22;41912;51.022;3.664;2022-12-18T17:52:03;1.60;99.90